Sanibel, FL

12:08 PM EDT on September 26, 2016 (GMT -0400)
Rabbit Road | | Change Station

Elev 7 ft 26.44 °N, 82.11 °W | Updated 4 seconds ago

Clear
Clear
86.2 °F
Feels Like 96 °F
N
1.1
Wind Variable Wind from SE
Gusts 2.5 mph

Today
High -- | Low -- °F
--% Chance of Precip.
Yesterday
High -- | Low -- °F
Precip. -- in
Pressure 30.01 in
Visibility 10.0 miles
Clouds Clear
Heat Index 96 °F
Dew Point 75 °F
Humidity 70%
Rainfall 0.00 in
Snow Depth Not available.
7:18 AM 7:19 PM
Waning Crescent, 18% visible
METAR KFMY 261553Z 13003KT 10SM CLR 28/23 A3001 RMK AO2 SLP162 T02830233
Pressure 30.01 in
Visibility 10.0 miles
Clouds Clear
Heat Index 96 °F
Dew Point 75 °F
Humidity 70%
Rainfall 0.00 in
Snow Depth Not available.
7:18 AM 7:19 PM
Waning Crescent, 18% visible
METAR KFMY 261553Z 13003KT 10SM CLR 28/23 A3001 RMK AO2 SLP162 T02830233

10-Day Weather Forecast

Almanac

Astronomy

Sep. 26, 2016 Rise Set
Actual Time
Civil Twilight
Nautical Twilight
Astronomical Twilight
Moon
Length of Visible Light
Length of Day
Tomorrow will be .
, % of the Moon is Illuminated

Today's Extremes

State Highs State Lows

Community

WunderPhotos

Upload Photos

1,941,908 photos uploaded!

WunderBlog® & News

Nearby

Air Quality

  Air Quality AQ Index Pollutant
Not available.

Snow Depth

Station Depth Elevation

Earthquake Activity

City Distance Mag. Time & Date
Minimum magnitude displayed is 2.5.

Coastal Water Temperatures

Place Temperature

Stations

Nearby Weather Stations

Station Location Temp. Windchill Dew Point Humidity Wind Precip. Elev Updated Type
                   

Watches & Warnings

There are currently no watches in effect.